Lafayette Regional Airport
KLFT : now visible

Airfield :











YOU CAN JOIN US ON...

 
LOGIN :

Register | Disclaimer

   EN    FR    IT 

 









Legend :    VFR   Marginal VFR   IFR   Intensive IFR   Very Intensive IFR
Visi :
Ceiling :
>= 8 km
>= 3000ft
5 to 8 km
1000 to 3000 ft
1500m to 5 km
500 to 1000 ft
800 to 1500m
200 to 500 ft
< 800m
< 200 ft
Symbols :   Thunderstorms  Fog  Heavy snow  Heavy precipitations  Wind > 20 kt






- Airport Elevation : 42 ft
- IATA code : LFT


KLFT - Lafayette Regional

CURRENT METAR :
  • 230153Z 00000KT 10SM FEW033 SCT043 BKN060 23/22 A2997 RMK AO2 SLP149 T02280217

EXPIRED METARs :
  • 230053Z 00000KT 10SM FEW030 BKN038 OVC050 23/21 A2997 RMK AO2 RAE01 TSB21E36 SLP147 P0001 T02330211
  • 230042Z 31003KT 10SM FEW030 BKN038 BKN050 23/21 A2997 RMK AO2 RAE01 TSB21E36 P0001 T02330206
  • 230027Z 32003KT 10SM TS SCT038 23/20 A2997 RMK AO2 LTG DSNT N AND NW RAE01 TSB21 P0001 T02280200
  • 230017Z 33003KT 10SM VCTS FEW048 FEW090 SCT120 22/20 A2997 RMK AO2 LTG DSNT N RAE01 P0001 T02220200
  • 230004Z 21004KT 10SM FEW050 SCT070 BKN090 22/19 A2995 RMK AO2 RAE01 P0001 T02220194
  • 222353Z 00000KT 10SM VCTS +RA SCT026 BKN050 OVC090 22/19 A2996 RMK AO2 LTG DSNT N RAB41 SLP144 P0012 60012 T02220194 10306 20222 53006

TAF KLFT
Valid from the 23 at 00:00 until the 24 at 00:00 UTC


230005Z 2300/2324 VRB04KT P6SM VCTS SCT025 SCT035CB OVC090
TEMPO 2300/2302 VRB12G19KT 4SM TSRA BR BKN026CB BKN035 OVC080
FM230900 VRB03KT 4SM BR BKN005
FM231200 00000KT 2SM BR OVC004
FM231700 08003KT P6SM BKN012
KZHU FIR / North America



MET'MAP, your aeronautical weather chart ! - Copyright ORBIFLY December 2007 - Disclaimer

ORBIFLY MET'MAP TEAM :

Programming & Development : Alexandra Zaïnal
Concept & original design : Baudouin d'Aumeries
Assistance for programming : Marc-Olivier Méhu
Technical & hardware support : Manuel Goepfert

Contact : metmap@orbifly.com




SOURCES & CREDITS :

   NOAA       Earth
Advisory